Time;durP1;ratioP1;P1;durP2;ratioP2;P2;SDS_P1;SDS_P2;PMS_P1;PMS_P2;Temp;Humidity;BMP_temperature;BMP_pressure;BME280_temperature;BME280_humidity;BME280_pressure;Samples;Min_cycle;Max_cycle;Signal;HPM_P1;HPM_P2
2022/07/03 00:01:40;;;;;;;6.00;3.47;;;;;;;20.52;52.31;99469.38;5076007;28;20075;-66
2022/07/03 00:04:07;;;;;;;9.68;3.80;;;;;;;20.47;51.67;99461.28;5057937;28;20132;-67
2022/07/03 00:06:34;;;;;;;5.68;3.60;;;;;;;20.49;51.41;99453.22;5076057;28;20059;-67
2022/07/03 00:09:04;;;;;;;11.48;4.22;;;;;;;20.50;51.32;99452.00;5076149;28;20049;-68
2022/07/03 00:11:32;;;;;;;11.07;3.88;;;;;;;20.40;50.92;99450.75;5057214;28;20135;-69
2022/07/03 00:14:00;;;;;;;9.75;3.88;;;;;;;20.32;50.82;99448.34;5075856;28;20062;-67
2022/07/03 00:16:27;;;;;;;7.35;3.90;;;;;;;20.27;50.81;99434.59;5075747;28;20086;-67
2022/07/03 00:18:54;;;;;;;6.47;3.72;;;;;;;20.21;50.81;99427.72;5075261;28;20135;-66
2022/07/03 00:21:27;;;;;;;10.30;4.05;;;;;;;20.18;50.92;99420.84;5057434;28;20512;-68
2022/07/03 00:24:02;;;;;;;6.50;3.83;;;;;;;20.17;50.93;99421.25;5075682;28;20071;-68
2022/07/03 00:26:34;;;;;;;8.77;4.35;;;;;;;20.17;50.88;99415.59;5075529;28;20135;-69
2022/07/03 00:29:02;;;;;;;11.70;3.65;;;;;;;20.22;50.36;99415.22;5075371;28;20049;-68
2022/07/03 00:31:32;;;;;;;7.77;3.87;;;;;;;20.26;49.45;99421.69;5075200;28;20515;-68
2022/07/03 00:34:01;;;;;;;17.27;3.80;;;;;;;20.30;49.19;99423.31;5075517;28;20053;-68
2022/07/03 00:36:34;;;;;;;8.37;3.70;;;;;;;20.32;49.01;99420.06;5075184;28;20140;-68
2022/07/03 00:39:01;;;;;;;12.30;3.58;;;;;;;20.33;48.94;99416.03;5075160;28;20071;-69
2022/07/03 00:41:31;;;;;;;8.60;3.47;;;;;;;20.32;48.52;99426.53;5075252;28;20499;-67
2022/07/03 00:43:58;;;;;;;10.75;3.97;;;;;;;20.29;48.47;99432.19;5075802;28;20075;-68
2022/07/03 00:46:26;;;;;;;11.95;3.72;;;;;;;20.28;48.30;99425.72;5057212;28;20507;-72
2022/07/03 00:48:55;;;;;;;12.38;4.05;;;;;;;20.28;47.99;99431.34;5075080;28;20051;-74
2022/07/03 00:51:24;;;;;;;7.05;3.47;;;;;;;20.28;48.59;99430.56;5074986;28;20450;-73
2022/07/03 00:53:54;;;;;;;6.47;3.58;;;;;;;20.25;48.05;99429.34;5074986;28;20056;-73
2022/07/03 00:56:31;;;;;;;10.27;3.85;;;;;;;20.28;48.44;99427.75;5056829;28;20534;-73
2022/07/03 00:59:00;;;;;;;6.03;3.42;;;;;;;20.17;49.05;99424.06;5074963;28;20547;-72
2022/07/03 01:01:34;;;;;;;7.95;4.00;;;;;;;20.13;49.09;99418.41;5056652;28;20041;-73
2022/07/03 01:04:37;;;;;;;9.57;3.50;;;;;;;20.11;49.35;99425.66;5074762;28;20053;-73
2022/07/03 01:07:18;;;;;;;6.13;2.92;;;;;;;20.11;49.40;99420.00;5058314;28;20056;-72
2022/07/03 01:10:29;;;;;;;6.13;3.60;;;;;;;20.05;49.70;99421.59;5057195;28;20060;-73
2022/07/03 01:13:11;;;;;;;9.32;3.33;;;;;;;20.06;49.46;99424.00;5063864;28;20063;-73
2022/07/03 01:16:01;;;;;;;11.82;4.10;;;;;;;20.11;49.58;99426.47;5056387;28;20075;-73
2022/07/03 01:18:51;;;;;;;7.65;3.40;;;;;;;20.17;49.81;99424.06;5074560;28;20585;-69
2022/07/03 01:21:42;;;;;;;;;;;;;;;20.09;49.40;99428.03;5074891;28;20049;-69
2022/07/03 01:24:42;;;;;;;8.98;3.53;;;;;;;20.15;49.55;99418.00;5074595;28;19928;-74
2022/07/03 01:27:27;;;;;;;7.45;3.00;;;;;;;20.07;50.03;99419.97;5074394;28;20143;-71
2022/07/03 01:30:06;;;;;;;8.15;3.75;;;;;;;20.04;50.49;99419.97;5074095;28;20040;-73
2022/07/03 01:32:41;;;;;;;13.23;3.30;;;;;;;20.01;50.67;99420.78;5074112;28;20052;-73
2022/07/03 01:35:11;;;;;;;7.55;3.78;;;;;;;19.98;51.03;99424.41;5056795;28;20102;-73
2022/07/03 01:37:39;;;;;;;7.13;3.83;;;;;;;19.98;51.44;99424.41;5074300;28;20041;-71
2022/07/03 01:40:08;;;;;;;7.82;3.33;;;;;;;19.95;51.81;99415.50;5073973;28;20055;-71
2022/07/03 01:42:40;;;;;;;10.20;3.85;;;;;;;19.93;52.02;99417.13;5074159;28;20504;-71
2022/07/03 01:45:09;;;;;;;10.30;3.55;;;;;;;19.86;52.92;99419.91;5074050;28;20048;-72
2022/07/03 01:47:45;;;;;;;5.72;3.65;;;;;;;19.84;53.34;99420.28;5074068;28;20048;-71
2022/07/03 01:50:14;;;;;;;7.22;3.78;;;;;;;19.84;53.61;99417.47;5073973;28;20055;-72
2022/07/03 01:52:44;;;;;;;7.90;3.60;;;;;;;19.83;53.94;99421.50;5074021;28;20048;-72
2022/07/03 01:55:14;;;;;;;6.90;3.45;;;;;;;19.88;54.09;99423.97;5074171;28;20056;-69
2022/07/03 01:57:44;;;;;;;6.72;3.65;;;;;;;19.96;54.15;99427.63;5073899;28;20106;-69
2022/07/03 02:00:13;;;;;;;7.32;3.50;;;;;;;19.98;54.43;99428.84;5073631;28;20203;-69
2022/07/03 02:02:45;;;;;;;9.77;3.33;;;;;;;19.99;54.51;99426.81;5073955;28;20048;-68
2022/07/03 02:05:32;;;;;;;10.93;3.60;;;;;;;20.03;54.46;99430.47;5055453;28;20049;-69
2022/07/03 02:08:36;;;;;;;9.90;4.03;;;;;;;20.02;54.59;99420.38;5073297;28;20052;-68
2022/07/03 02:11:09;;;;;;;6.88;3.22;;;;;;;20.04;54.63;99417.16;5073248;28;20431;-69
2022/07/03 02:13:52;;;;;;;9.18;3.53;;;;;;;20.09;54.42;99422.41;5072723;28;20101;-69
2022/07/03 02:17:14;;;;;;;6.25;3.45;;;;;;;20.11;54.19;99414.34;5058331;28;20118;-69
2022/07/03 02:19:55;;;;;;;8.43;3.58;;;;;;;20.17;54.37;99424.06;5073338;28;20050;-68
2022/07/03 02:22:32;;;;;;;6.25;3.72;;;;;;;20.19;54.34;99416.03;5073480;28;20048;-68
2022/07/03 02:25:04;;;;;;;7.05;3.60;;;;;;;20.20;54.16;99411.97;5073307;28;20423;-68
2022/07/03 02:27:48;;;;;;;5.72;3.45;;;;;;;20.22;53.48;99412.41;5073012;28;20209;-68
2022/07/03 02:30:16;;;;;;;4.78;3.25;;;;;;;20.31;52.89;99412.81;5053180;28;20076;-68
2022/07/03 02:32:48;;;;;;;7.47;3.17;;;;;;;20.37;52.43;99414.03;5053457;28;20041;-67
2022/07/03 02:35:33;;;;;;;6.05;3.30;;;;;;;20.41;52.10;99414.84;5052787;28;20051;-68
2022/07/03 02:38:20;;;;;;;5.38;3.15;;;;;;;20.39;52.44;99415.25;5053105;28;20049;-67
2022/07/03 02:41:17;;;;;;;8.40;3.20;;;;;;;20.42;52.13;99414.44;5053015;28;20091;-73
2022/07/03 02:44:14;;;;;;;5.35;3.08;;;;;;;20.47;51.76;99416.06;5053379;28;20045;-73
2022/07/03 02:46:59;;;;;;;7.20;3.17;;;;;;;20.55;51.75;99417.69;5052750;28;20136;-68
2022/07/03 02:49:56;;;;;;;7.95;2.95;;;;;;;20.60;51.19;99411.66;5052657;28;20068;-68
2022/07/03 02:52:26;;;;;;;5.00;3.38;;;;;;;20.64;50.70;99418.13;5052611;28;20045;-72
2022/07/03 02:54:57;;;;;;;5.90;3.50;;;;;;;20.63;50.52;99408.03;5052702;28;20470;-72
2022/07/03 02:57:24;;;;;;;5.85;2.83;;;;;;;20.65;50.48;99408.41;5018507;28;20139;-72
2022/07/03 02:59:55;;;;;;;8.57;3.63;;;;;;;20.69;50.13;99412.06;5052932;28;20396;-72
2022/07/03 03:02:21;;;;;;;6.28;3.35;;;;;;;20.71;49.94;99410.44;5052669;28;20049;-71
2022/07/03 03:04:57;;;;;;;5.40;3.17;;;;;;;20.73;49.60;99410.03;5052783;28;20589;-71
2022/07/03 03:07:56;;;;;;;5.22;3.20;;;;;;;20.79;49.71;99405.59;5054005;28;20055;-71
2022/07/03 03:10:23;;;;;;;8.90;3.17;;;;;;;20.82;49.42;99407.63;5068270;28;20053;-72
2022/07/03 03:13:16;;;;;;;6.05;3.50;;;;;;;20.88;49.26;99414.47;5072649;28;20059;-72
2022/07/03 03:16:07;;;;;;;5.65;3.20;;;;;;;20.89;48.89;99411.25;5073194;28;20433;-71
2022/07/03 03:18:39;;;;;;;5.57;2.90;;;;;;;20.94;48.67;99405.19;5061611;28;20094;-71
2022/07/03 03:21:10;;;;;;;9.10;5.30;;;;;;;20.98;48.71;99413.69;5072518;28;20049;-71
2022/07/03 03:23:48;;;;;;;4.97;3.25;;;;;;;21.00;48.50;99411.28;5072603;28;20037;-72
2022/07/03 03:26:24;;;;;;;8.73;3.25;;;;;;;21.04;48.46;99400.75;5076569;28;20048;-71
2022/07/03 03:28:52;;;;;;;8.80;3.55;;;;;;;21.07;48.41;99400.75;5076547;28;20487;-72
2022/07/03 03:31:20;;;;;;;8.52;3.45;;;;;;;21.14;48.14;99405.63;5076531;28;20066;-69
2022/07/03 03:33:49;;;;;;;8.55;3.67;;;;;;;21.17;47.89;99405.59;5076607;28;20415;-69
2022/07/03 03:36:18;;;;;;;6.57;3.65;;;;;;;21.20;48.05;99398.31;5076433;28;20044;-69
2022/07/03 03:38:47;;;;;;;7.63;3.70;;;;;;;21.24;47.79;99404.78;5076008;28;20497;-69
2022/07/03 03:41:14;;;;;;;6.60;3.28;;;;;;;21.29;47.74;99395.88;5076743;28;20504;-69
2022/07/03 03:43:43;;;;;;;6.55;3.05;;;;;;;21.39;47.30;99389.38;5076218;28;20449;-69
2022/07/03 03:46:11;;;;;;;6.32;3.60;;;;;;;21.54;46.99;99390.94;5058618;28;20059;-69
2022/07/03 03:48:38;;;;;;;6.60;3.53;;;;;;;21.76;46.59;99398.16;5076325;28;20055;-69
2022/07/03 03:51:07;;;;;;;6.88;3.15;;;;;;;21.94;46.42;99386.78;5076205;28;20044;-69
2022/07/03 03:53:36;;;;;;;7.45;3.30;;;;;;;22.06;46.09;99389.16;5075980;28;20106;-69
2022/07/03 03:56:09;;;;;;;8.07;3.35;;;;;;;22.20;45.96;99391.91;5076287;28;20063;-73
2022/07/03 03:58:44;;;;;;;5.68;3.30;;;;;;;22.27;45.49;99372.81;5076075;28;20079;-72
2022/07/03 04:01:12;;;;;;;6.85;3.45;;;;;;;22.36;45.60;99381.69;5076089;28;20052;-72
2022/07/03 04:03:40;;;;;;;4.60;3.10;;;;;;;22.33;45.51;99379.69;5076076;28;20055;-73
2022/07/03 04:06:08;;;;;;;10.68;3.70;;;;;;;22.44;45.47;99377.56;5075652;28;20045;-73
2022/07/03 04:08:35;;;;;;;7.47;4.00;;;;;;;22.55;45.25;99372.66;5075724;28;20478;-72
2022/07/03 04:11:02;;;;;;;6.47;3.88;;;;;;;22.67;45.00;99383.50;5075510;28;20056;-73
2022/07/03 04:13:29;;;;;;;5.93;3.58;;;;;;;22.76;45.01;99378.16;5076190;28;20060;-73
2022/07/03 04:15:56;;;;;;;12.93;3.83;;;;;;;22.85;45.09;99375.63;5057642;28;20051;-72
2022/07/03 04:18:24;;;;;;;6.35;4.18;;;;;;;22.91;44.96;99379.63;5075640;28;20572;-73
2022/07/03 04:20:56;;;;;;;4.88;3.42;;;;;;;23.06;44.54;99385.97;5075208;28;20475;-73
2022/07/03 04:23:23;;;;;;;6.18;3.47;;;;;;;23.10;44.70;99369.75;5075644;28;20515;-73
2022/07/03 04:25:50;;;;;;;4.93;3.40;;;;;;;23.20;44.37;99380.16;5075527;28;20044;-72
2022/07/03 04:28:17;;;;;;;8.98;4.03;;;;;;;23.19;44.21;99372.88;5075432;28;20407;-72
2022/07/03 04:30:46;;;;;;;;;;;;;;;23.08;44.33;99383.53;5075656;28;20052;-73
2022/07/03 04:33:13;;;;;;;8.30;3.90;;;;;;;23.22;44.19;99381.38;5075771;28;19956;-73
2022/07/03 04:35:40;;;;;;;9.50;4.22;;;;;;;23.30;43.85;99384.97;5074965;28;20139;-72
2022/07/03 04:38:07;;;;;;;6.32;3.97;;;;;;;23.47;43.96;99380.34;5040835;28;20048;-67
2022/07/03 04:40:34;;;;;;;5.90;3.78;;;;;;;23.62;43.46;99385.41;5074963;28;20124;-68
2022/07/03 04:43:01;;;;;;;6.80;3.70;;;;;;;23.76;43.32;99384.44;5075318;28;20151;-70
2022/07/03 04:45:28;;;;;;;13.38;4.00;;;;;;;23.92;43.10;99385.44;5074922;28;20419;-67
2022/07/03 04:47:55;;;;;;;14.95;4.10;;;;;;;24.12;42.80;99385.59;5075287;28;20053;-73
2022/07/03 04:50:22;;;;;;;7.03;4.15;;;;;;;24.34;42.21;99389.78;5074900;28;20135;-73
2022/07/03 04:52:49;;;;;;;10.27;5.07;;;;;;;24.40;42.20;99382.38;5075161;28;20044;-68
2022/07/03 04:55:16;;;;;;;9.40;4.30;;;;;;;24.44;42.15;99381.09;5075256;28;20127;-67
2022/07/03 04:57:43;;;;;;;6.95;3.97;;;;;;;24.56;41.97;99383.34;5075322;28;20062;-68
2022/07/03 05:00:10;;;;;;;7.05;4.15;;;;;;;24.76;41.48;99387.13;5074599;28;20051;-67
2022/07/03 05:02:37;;;;;;;10.13;4.13;;;;;;;25.11;40.80;99391.38;5074999;28;20068;-68
2022/07/03 05:05:04;;;;;;;12.30;5.22;;;;;;;25.22;40.26;99386.28;5074621;28;20131;-67
2022/07/03 05:07:31;;;;;;;8.43;3.75;;;;;;;25.37;40.04;99379.13;5074735;28;20397;-68
2022/07/03 05:09:58;;;;;;;11.98;4.97;;;;;;;25.61;40.09;99374.97;5074422;28;20504;-68
2022/07/03 05:12:25;;;;;;;10.43;4.00;;;;;;;25.82;39.39;99373.75;5074666;28;20056;-68
2022/07/03 05:14:52;;;;;;;12.35;4.60;;;;;;;25.80;39.71;99362.78;5074480;28;20400;-66
2022/07/03 05:17:19;;;;;;;10.27;4.43;;;;;;;25.87;39.58;99364.69;5074306;28;20415;-67
2022/07/03 05:19:49;;;;;;;8.45;4.05;;;;;;;25.93;39.55;99369.44;5056230;28;20136;-67
2022/07/03 05:22:33;;;;;;;6.28;3.85;;;;;;;25.85;39.69;99368.00;5073884;28;20454;-67
2022/07/03 05:25:00;;;;;;;10.00;4.35;;;;;;;25.87;39.93;99365.47;5074491;28;20457;-67
2022/07/03 05:27:29;;;;;;;7.95;3.90;;;;;;;26.12;39.60;99371.50;5057065;28;20052;-67
2022/07/03 05:29:56;;;;;;;8.23;4.30;;;;;;;26.22;39.27;99369.63;5054462;28;20048;-67
2022/07/03 05:32:22;;;;;;;13.02;4.93;;;;;;;26.40;39.33;99367.16;5036460;28;20067;-67
2022/07/03 05:34:49;;;;;;;6.70;4.10;;;;;;;26.62;39.10;99371.97;5054558;28;20049;-67
2022/07/03 05:37:18;;;;;;;9.95;4.20;;;;;;;26.84;38.67;99369.38;5054210;28;20049;-67
2022/07/03 05:39:45;;;;;;;7.85;4.35;;;;;;;26.96;38.58;99371.53;5066960;28;20087;-67
2022/07/03 05:42:13;;;;;;;9.55;4.35;;;;;;;27.13;38.30;99363.75;5074400;28;20106;-68
2022/07/03 05:44:42;;;;;;;16.23;4.95;;;;;;;27.31;37.93;99372.69;5074197;28;20044;-68
2022/07/03 05:47:09;;;;;;;13.65;5.25;;;;;;;27.52;37.75;99369.22;5073235;28;20045;-68
2022/07/03 05:49:36;;;;;;;9.85;4.15;;;;;;;27.81;37.45;99362.25;5074329;28;20036;-68
2022/07/03 05:52:03;;;;;;;11.18;4.70;;;;;;;28.01;37.08;99364.97;5056000;28;20110;-67
2022/07/03 05:54:30;;;;;;;10.75;5.00;;;;;;;28.03;36.96;99357.53;5073678;28;20045;-67
2022/07/03 05:56:57;;;;;;;7.82;4.90;;;;;;;28.14;36.83;99357.22;5073751;28;20435;-67
2022/07/03 05:59:24;;;;;;;11.50;4.72;;;;;;;28.34;36.45;99360.69;5073717;28;20047;-67
2022/07/03 06:01:50;;;;;;;10.15;4.03;;;;;;;28.56;36.11;99355.91;5074181;28;20135;-67
2022/07/03 06:04:17;;;;;;;9.60;5.00;;;;;;;28.64;36.27;99363.00;5073526;28;20084;-73
2022/07/03 06:06:44;;;;;;;9.27;4.85;;;;;;;28.88;35.85;99367.09;5073370;28;20040;-73
2022/07/03 06:09:11;;;;;;;11.60;4.97;;;;;;;29.22;35.25;99358.56;5073613;28;20518;-74
2022/07/03 06:11:43;;;;;;;13.73;5.20;;;;;;;29.84;35.03;99360.41;5073329;28;20092;-73
2022/07/03 06:14:10;;;;;;;11.80;4.97;;;;;;;31.02;32.65;99361.84;5073603;28;20087;-67
2022/07/03 06:16:37;;;;;;;14.15;5.00;;;;;;;33.39;28.94;99358.88;5073488;28;20059;-68
2022/07/03 06:19:04;;;;;;;12.68;4.65;;;;;;;36.83;24.02;99363.56;5073500;28;20553;-68
2022/07/03 06:21:31;;;;;;;10.68;4.43;;;;;;;37.33;22.94;99356.81;5073247;28;20048;-68
2022/07/03 06:23:59;;;;;;;11.02;5.28;;;;;;;35.46;24.64;99367.31;5074320;28;20050;-72
2022/07/03 06:26:27;;;;;;;12.48;5.20;;;;;;;34.34;26.34;99365.25;5073298;28;20539;-72
2022/07/03 06:28:55;;;;;;;11.97;4.87;;;;;;;33.80;27.40;99362.88;5073514;28;20051;-67
2022/07/03 06:31:21;;;;;;;13.45;5.40;;;;;;;32.70;28.41;99361.13;5073120;28;20041;-68
2022/07/03 06:33:48;;;;;;;15.25;5.72;;;;;;;31.73;29.79;99357.47;5073137;28;20511;-67
2022/07/03 06:36:17;;;;;;;9.57;5.37;;;;;;;30.74;31.37;99356.47;5055518;28;20418;-68
2022/07/03 06:38:44;;;;;;;16.65;4.63;;;;;;;30.26;32.71;99355.16;5072937;28;20062;-68
2022/07/03 06:41:10;;;;;;;15.05;5.13;;;;;;;29.88;32.96;99361.09;5073026;28;20065;-72
2022/07/03 06:43:38;;;;;;;11.57;4.80;;;;;;;29.58;33.02;99356.06;5073147;28;20044;-72
2022/07/03 06:46:05;;;;;;;9.30;4.72;;;;;;;29.55;33.30;99357.00;5073014;28;20053;-72
2022/07/03 06:48:32;;;;;;;9.60;5.50;;;;;;;29.86;33.11;99352.16;5073073;28;20052;-72
2022/07/03 06:50:59;;;;;;;13.52;5.00;;;;;;;30.85;31.43;99356.88;5072891;28;20400;-72
2022/07/03 06:53:26;;;;;;;14.27;5.05;;;;;;;31.45;30.72;99357.97;5072829;28;20101;-72
2022/07/03 06:55:53;;;;;;;9.20;4.50;;;;;;;32.86;28.49;99367.31;5072864;28;20451;-72
2022/07/03 06:58:20;;;;;;;7.90;4.45;;;;;;;35.70;24.75;99365.00;5072836;28;20443;-73
2022/07/03 07:00:47;;;;;;;12.85;4.65;;;;;;;40.45;19.91;99363.53;5072410;28;20423;-73
2022/07/03 07:03:14;;;;;;;11.77;4.43;;;;;;;44.41;15.80;99367.63;5072819;28;20045;-69
2022/07/03 07:05:41;;;;;;;9.73;5.15;;;;;;;46.68;13.83;99373.78;5072330;28;20144;-68
2022/07/03 07:08:08;;;;;;;7.72;4.50;;;;;;;48.49;12.79;99378.06;5072552;28;20052;-69
2022/07/03 07:10:34;;;;;;;8.77;4.35;;;;;;;49.90;11.50;99376.69;5072451;28;20144;-69
2022/07/03 07:13:01;;;;;;;6.83;4.50;;;;;;;51.11;10.29;99366.94;5072439;28;20061;-67
2022/07/03 07:15:28;;;;;;;6.63;4.80;;;;;;;52.46;9.07;99376.22;5072605;28;20136;-69
2022/07/03 07:17:55;;;;;;;13.73;4.75;;;;;;;53.48;8.90;99376.34;5072674;28;20315;-68
2022/07/03 07:20:22;;;;;;;5.90;3.80;;;;;;;54.13;8.04;99369.75;5072328;28;20518;-68
2022/07/03 07:22:52;;;;;;;;;;;;;;;54.48;8.38;99365.50;5073008;28;20054;-69
2022/07/03 07:25:20;;;;;;;7.13;4.00;;;;;;;55.06;7.37;99372.41;5072407;28;19973;-68
2022/07/03 07:27:47;;;;;;;6.93;4.13;;;;;;;55.60;6.91;99366.94;5072595;28;20051;-68
2022/07/03 07:30:14;;;;;;;11.27;4.28;;;;;;;56.10;6.50;99369.31;5072616;28;20135;-69
2022/07/03 07:32:41;;;;;;;9.38;4.93;;;;;;;56.26;6.87;99364.28;5073003;28;20403;-69
2022/07/03 07:35:08;;;;;;;7.95;4.53;;;;;;;56.58;6.81;99363.22;5072545;28;20041;-69
2022/07/03 07:37:36;;;;;;;9.88;4.63;;;;;;;57.00;6.05;99368.69;5072598;28;20052;-69
2022/07/03 07:40:03;;;;;;;12.73;4.63;;;;;;;57.62;5.48;99368.41;5072069;28;20087;-70
2022/07/03 07:42:30;;;;;;;12.02;3.80;;;;;;;57.95;5.46;99358.97;5072396;28;20452;-70
2022/07/03 07:44:57;;;;;;;14.23;4.38;;;;;;;57.93;4.96;99362.63;5072365;28;20508;-69
2022/07/03 07:47:24;;;;;;;7.30;4.20;;;;;;;58.44;5.23;99363.03;5055009;28;20056;-69
2022/07/03 07:49:51;;;;;;;10.75;4.57;;;;;;;58.94;5.39;99349.75;5072501;28;20064;-69
2022/07/03 07:52:18;;;;;;;11.55;4.20;;;;;;;59.86;4.36;99354.94;5072489;28;20593;-70
2022/07/03 07:54:45;;;;;;;9.10;4.28;;;;;;;60.24;3.95;99352.81;5072270;28;20055;-72
2022/07/03 07:57:12;;;;;;;8.40;4.20;;;;;;;59.57;4.24;99345.31;5071979;28;20052;-74
2022/07/03 07:59:39;;;;;;;8.65;4.43;;;;;;;59.29;4.59;99344.75;5071871;28;20415;-73
2022/07/03 08:07:42;;;;;;;14.60;4.82;;;;;;;59.46;4.52;99340.28;5072182;28;20087;-72
2022/07/03 08:10:09;;;;;;;10.27;4.40;;;;;;;56.27;5.24;99332.97;5072578;28;20416;-72
2022/07/03 08:12:36;;;;;;;14.45;4.18;;;;;;;53.30;6.87;99334.16;5075858;28;20053;-72
2022/07/03 08:15:04;;;;;;;14.60;4.00;;;;;;;53.30;6.82;99339.34;5075616;28;20454;-72
2022/07/03 08:17:30;;;;;;;6.93;3.83;;;;;;;55.49;5.82;99331.16;5075789;28;20530;-73
2022/07/03 08:19:57;;;;;;;6.40;4.40;;;;;;;57.18;5.13;99336.03;5075668;28;20079;-74
2022/07/03 08:22:24;;;;;;;5.22;3.88;;;;;;;57.30;4.87;99336.72;5075469;28;20052;-71
2022/07/03 08:24:51;;;;;;;10.45;4.03;;;;;;;56.47;5.42;99342.38;5075514;28;20049;-72
2022/07/03 08:27:19;;;;;;;8.30;3.90;;;;;;;55.40;5.95;99335.03;5076012;28;20186;-71
2022/07/03 08:29:46;;;;;;;6.70;4.25;;;;;;;53.13;6.83;99336.59;5075380;28;20052;-72
2022/07/03 08:32:13;;;;;;;6.40;3.72;;;;;;;51.79;7.68;99333.88;5075813;28;20076;-73
2022/07/03 08:34:40;;;;;;;8.63;4.03;;;;;;;51.26;7.88;99327.38;5075256;28;20091;-72
2022/07/03 08:37:08;;;;;;;6.57;4.30;;;;;;;53.19;7.27;99334.06;5075035;28;20058;-73
2022/07/03 08:39:35;;;;;;;7.78;3.90;;;;;;;49.89;9.18;99329.94;5075114;28;20076;-73
2022/07/03 08:42:02;;;;;;;7.85;4.30;;;;;;;49.79;9.18;99323.19;5074891;28;20056;-71
2022/07/03 08:44:30;;;;;;;12.93;4.13;;;;;;;52.16;7.48;99326.38;5075208;28;20045;-73
2022/07/03 08:46:59;;;;;;;6.72;3.33;;;;;;;51.54;7.69;99318.53;5075177;28;20044;-73
2022/07/03 08:49:28;;;;;;;6.80;3.88;;;;;;;48.94;9.35;99315.72;5075441;28;20059;-72
2022/07/03 08:51:55;;;;;;;20.02;4.05;;;;;;;52.15;7.18;99324.81;5074805;28;20048;-73
2022/07/03 08:54:22;;;;;;;6.03;3.95;;;;;;;49.93;8.36;99315.53;5075073;28;20166;-72
2022/07/03 08:56:49;;;;;;;8.38;5.45;;;;;;;46.47;10.29;99317.19;5074913;28;20056;-72
2022/07/03 08:59:17;;;;;;;7.93;3.88;;;;;;;44.68;12.00;99310.41;5074719;28;20083;-73
2022/07/03 09:01:46;;;;;;;9.07;4.13;;;;;;;46.81;10.22;99309.56;5075083;28;20133;-73
2022/07/03 09:04:13;;;;;;;6.32;3.88;;;;;;;45.00;11.50;99307.16;5074989;28;20465;-74
2022/07/03 09:06:41;;;;;;;18.73;4.03;;;;;;;43.24;12.73;99315.00;5074420;28;20486;-73
2022/07/03 09:09:08;;;;;;;6.47;3.90;;;;;;;47.28;10.58;99311.94;5074499;28;20056;-74
2022/07/03 09:11:38;;;;;;;10.20;3.63;;;;;;;48.14;9.74;99308.34;5074488;28;20045;-73
2022/07/03 09:14:06;;;;;;;9.80;3.42;;;;;;;49.33;9.28;99311.84;5074676;28;20519;-73
2022/07/03 09:16:49;;;;;;;10.32;3.60;;;;;;;44.70;11.70;99304.75;5074753;28;20070;-74
2022/07/03 09:19:42;;;;;;;5.30;4.03;;;;;;;49.02;9.09;99304.66;5074917;28;20048;-73
2022/07/03 09:22:26;;;;;;;12.25;4.10;;;;;;;52.08;7.44;99316.06;5073131;28;20496;-74
2022/07/03 09:25:14;;;;;;;5.55;4.25;;;;;;;53.86;6.33;99304.59;5074523;28;20518;-73
2022/07/03 09:27:52;;;;;;;4.57;3.42;;;;;;;54.47;5.96;99307.31;5074283;28;20060;-73
2022/07/03 09:30:19;;;;;;;6.53;3.72;;;;;;;53.23;6.80;99313.50;5074346;28;20036;-70
2022/07/03 09:32:49;;;;;;;8.52;3.60;;;;;;;51.87;7.50;99310.75;5074241;28;20052;-68
2022/07/03 09:35:20;;;;;;;8.38;3.75;;;;;;;48.83;9.81;99304.38;5073994;28;20049;-68
2022/07/03 09:38:01;;;;;;;5.38;3.78;;;;;;;45.08;11.90;99311.75;5074213;28;20466;-69
2022/07/03 09:40:51;;;;;;;8.20;3.67;;;;;;;43.30;12.96;99306.88;5073885;28;20495;-69
2022/07/03 09:43:28;;;;;;;3.90;3.30;;;;;;;41.27;14.95;99304.44;5061453;28;20060;-69
2022/07/03 09:45:58;;;;;;;9.23;4.03;;;;;;;39.63;16.04;99299.34;5073954;28;20052;-69
2022/07/03 09:48:32;;;;;;;5.80;3.95;;;;;;;38.69;17.17;99304.63;5073680;28;20052;-69
2022/07/03 09:51:10;;;;;;;9.70;3.75;;;;;;;38.18;17.70;99300.09;5073896;28;20048;-70
2022/07/03 09:53:50;;;;;;;8.95;4.40;;;;;;;37.39;18.79;99301.69;5074007;28;20036;-67
2022/07/03 09:56:32;;;;;;;6.85;4.13;;;;;;;36.26;19.93;99302.72;5073634;28;20098;-67
2022/07/03 09:59:14;;;;;;;8.63;5.85;;;;;;;35.15;21.42;99300.59;5073982;28;20140;-67
2022/07/03 10:01:43;;;;;;;11.35;4.80;;;;;;;34.60;22.11;99299.75;5073442;28;20054;-68
2022/07/03 10:04:11;;;;;;;10.52;4.70;;;;;;;34.37;22.54;99297.81;5073844;28;20041;-66
2022/07/03 10:06:55;;;;;;;9.40;4.00;;;;;;;33.91;22.82;99302.47;5073398;28;20052;-68
2022/07/03 10:09:26;;;;;;;8.40;4.00;;;;;;;33.50;23.03;99297.75;5073540;28;20044;-68
2022/07/03 10:11:55;;;;;;;4.93;4.43;;;;;;;33.26;23.19;99298.53;5073252;28;20118;-67
2022/07/03 10:14:23;;;;;;;;;;;;;;;32.83;23.57;99299.09;5073928;28;20182;-67
2022/07/03 10:16:51;;;;;;;7.22;4.03;;;;;;;32.94;23.66;99304.34;5073364;28;19924;-67
2022/07/03 10:19:20;;;;;;;7.15;3.95;;;;;;;32.64;24.23;99300.50;5073724;28;20052;-67
2022/07/03 10:21:52;;;;;;;6.53;4.30;;;;;;;32.41;24.72;99301.25;5073527;28;20518;-67
2022/07/03 10:24:22;;;;;;;10.27;3.72;;;;;;;32.51;24.04;99307.78;5073349;28;20048;-68
2022/07/03 10:26:53;;;;;;;8.40;3.90;;;;;;;32.43;23.91;99304.44;5073308;28;20059;-68
2022/07/03 10:29:26;;;;;;;7.70;4.28;;;;;;;32.49;23.37;99299.63;5073002;28;20048;-68
2022/07/03 10:31:56;;;;;;;4.72;3.00;;;;;;;32.13;23.06;99290.28;5073523;28;20058;-67
2022/07/03 10:34:25;;;;;;;8.07;3.75;;;;;;;31.76;23.08;99298.16;5072669;28;20447;-67
2022/07/03 10:36:59;;;;;;;;;;;;;;;31.36;24.19;99292.63;5073534;28;20052;-68
2022/07/03 10:39:33;;;;;;;8.98;3.42;;;;;;;31.55;23.53;99288.47;5072950;28;19924;-68
2022/07/03 10:44:51;;;;;;;6.68;3.97;;;;;;;31.94;23.23;99300.25;5072710;28;20048;-67
2022/07/03 10:47:49;;;;;;;8.27;3.58;;;;;;;31.75;23.82;99299.47;5073033;28;20056;-68
2022/07/03 10:50:21;;;;;;;7.20;3.33;;;;;;;31.49;23.80;99298.19;5072615;28;20044;-67
2022/07/03 10:52:49;;;;;;;5.85;3.72;;;;;;;31.41;24.23;99302.69;5072871;28;20419;-66
2022/07/03 10:55:16;;;;;;;9.82;3.75;;;;;;;31.45;23.78;99300.44;5054847;28;20110;-73
2022/07/03 10:58:06;;;;;;;6.38;3.83;;;;;;;31.40;23.79;99303.94;5073758;28;20044;-73
2022/07/03 11:00:54;;;;;;;5.28;3.30;;;;;;;31.30;24.09;99299.50;5072432;28;20049;-73
2022/07/03 11:04:01;;;;;;;6.85;3.15;;;;;;;31.10;23.58;99296.25;5072776;28;20056;-73
2022/07/03 11:06:43;;;;;;;12.95;3.38;;;;;;;30.93;24.20;99297.84;5072587;28;20446;-73
2022/07/03 11:09:14;;;;;;;4.05;3.45;;;;;;;30.86;24.20;99290.31;5073002;28;20388;-73
2022/07/03 11:11:54;;;;;;;7.05;3.40;;;;;;;30.81;24.90;99278.66;5054507;28;20408;-73
2022/07/03 11:14:22;;;;;;;10.90;3.60;;;;;;;30.91;24.92;99278.19;5072782;28;20106;-73
2022/07/03 11:17:19;;;;;;;5.72;3.75;;;;;;;31.04;24.27;99278.03;5072699;28;20041;-73
2022/07/03 11:23:00;;;;;;;6.10;3.15;;;;;;;31.09;24.28;99277.41;5072215;28;20136;-74
2022/07/03 11:25:42;;;;;;;4.93;3.50;;;;;;;31.10;24.54;99276.13;5061806;28;20057;-74
2022/07/03 11:28:33;;;;;;;8.65;3.38;;;;;;;31.06;24.54;99272.63;5072367;28;20060;-72
2022/07/03 11:31:16;;;;;;;6.18;3.55;;;;;;;31.14;24.86;99280.44;5072480;28;20052;-73
2022/07/03 11:33:47;;;;;;;7.22;3.45;;;;;;;31.09;24.81;99271.66;5072561;28;20076;-69
2022/07/03 11:36:17;;;;;;;5.32;3.38;;;;;;;31.01;24.38;99276.13;5072208;28;20059;-69
2022/07/03 11:39:05;;;;;;;6.47;3.22;;;;;;;30.98;24.37;99271.31;5072707;28;20048;-69
2022/07/03 11:41:35;;;;;;;5.50;3.50;;;;;;;30.97;24.80;99270.53;5072721;28;20538;-69
2022/07/03 11:44:04;;;;;;;7.15;3.97;;;;;;;31.01;24.90;99264.63;5072396;28;20587;-68
2022/07/03 11:46:34;;;;;;;5.22;3.40;;;;;;;31.04;24.04;99263.66;5075644;28;20052;-70
2022/07/03 11:49:09;;;;;;;18.15;6.85;;;;;;;30.84;23.86;99269.09;5076324;28;20057;-70
2022/07/03 11:51:37;;;;;;;5.20;3.08;;;;;;;30.63;23.56;99265.00;5076329;28;20557;-69
2022/07/03 11:54:05;;;;;;;6.20;3.37;;;;;;;30.59;23.68;99266.44;5076080;28;20048;-69
2022/07/03 11:56:33;;;;;;;6.78;3.00;;;;;;;30.60;23.10;99268.00;5075888;28;20140;-69
2022/07/03 11:59:02;;;;;;;3.95;2.75;;;;;;;30.62;23.57;99265.47;5058269;28;20048;-68
2022/07/03 12:01:35;;;;;;;6.38;2.85;;;;;;;30.57;23.39;99257.47;5075830;28;20452;-69
2022/07/03 12:04:09;;;;;;;7.50;2.60;;;;;;;30.61;23.42;99263.88;5057929;28;20139;-69
2022/07/03 12:06:37;;;;;;;10.55;3.70;;;;;;;30.60;23.08;99259.41;5040253;28;20055;-69
2022/07/03 12:09:17;;;;;;;5.68;2.97;;;;;;;30.66;23.03;99251.75;5076026;28;20139;-69